sensor_id;sensor_type;location;lat;lon;timestamp;temperature;humidity
16412;DHT22;8315;52.104;6.304;2022-07-23T00:01:21;17.90;98.40
16412;DHT22;8315;52.104;6.304;2022-07-23T00:03:48;18.00;98.40
16412;DHT22;8315;52.104;6.304;2022-07-23T00:06:15;17.90;98.40
16412;DHT22;8315;52.104;6.304;2022-07-23T00:08:42;17.90;98.40
16412;DHT22;8315;52.104;6.304;2022-07-23T00:11:09;17.90;98.40
16412;DHT22;8315;52.104;6.304;2022-07-23T00:13:36;17.90;98.40
16412;DHT22;8315;52.104;6.304;2022-07-23T00:16:04;17.90;98.40
16412;DHT22;8315;52.104;6.304;2022-07-23T00:18:31;17.80;98.40
16412;DHT22;8315;52.104;6.304;2022-07-23T00:20:58;17.80;98.40
16412;DHT22;8315;52.104;6.304;2022-07-23T00:23:25;17.80;98.40
16412;DHT22;8315;52.104;6.304;2022-07-23T00:25:52;17.70;98.40
16412;DHT22;8315;52.104;6.304;2022-07-23T00:28:19;17.70;98.40
16412;DHT22;8315;52.104;6.304;2022-07-23T00:30:46;17.70;98.40
16412;DHT22;8315;52.104;6.304;2022-07-23T00:33:14;17.60;98.40
16412;DHT22;8315;52.104;6.304;2022-07-23T00:35:41;17.60;98.40
16412;DHT22;8315;52.104;6.304;2022-07-23T00:38:08;17.70;98.40
16412;DHT22;8315;52.104;6.304;2022-07-23T00:40:36;17.60;98.40
16412;DHT22;8315;52.104;6.304;2022-07-23T00:43:03;17.60;98.40
16412;DHT22;8315;52.104;6.304;2022-07-23T00:45:30;17.60;98.40
16412;DHT22;8315;52.104;6.304;2022-07-23T00:47:57;17.60;98.40
16412;DHT22;8315;52.104;6.304;2022-07-23T00:50:26;17.50;98.40
16412;DHT22;8315;52.104;6.304;2022-07-23T00:52:53;17.40;98.40
16412;DHT22;8315;52.104;6.304;2022-07-23T00:55:20;17.40;98.40
16412;DHT22;8315;52.104;6.304;2022-07-23T00:57:46;17.30;98.40
16412;DHT22;8315;52.104;6.304;2022-07-23T01:00:14;17.20;98.40
16412;DHT22;8315;52.104;6.304;2022-07-23T01:02:41;17.30;98.40
16412;DHT22;8315;52.104;6.304;2022-07-23T01:05:09;17.20;98.40
16412;DHT22;8315;52.104;6.304;2022-07-23T01:07:38;17.10;98.40
16412;DHT22;8315;52.104;6.304;2022-07-23T01:10:05;17.10;98.40
16412;DHT22;8315;52.104;6.304;2022-07-23T01:12:54;17.10;98.40
16412;DHT22;8315;52.104;6.304;2022-07-23T01:15:21;17.10;98.40
16412;DHT22;8315;52.104;6.304;2022-07-23T01:17:48;17.10;98.40
16412;DHT22;8315;52.104;6.304;2022-07-23T01:20:15;17.10;98.40
16412;DHT22;8315;52.104;6.304;2022-07-23T01:22:43;17.10;98.40
16412;DHT22;8315;52.104;6.304;2022-07-23T01:25:10;17.00;98.40
16412;DHT22;8315;52.104;6.304;2022-07-23T01:27:40;17.00;98.40
16412;DHT22;8315;52.104;6.304;2022-07-23T01:30:07;17.00;98.40
16412;DHT22;8315;52.104;6.304;2022-07-23T01:32:35;16.90;98.40
16412;DHT22;8315;52.104;6.304;2022-07-23T01:35:02;16.80;98.40
16412;DHT22;8315;52.104;6.304;2022-07-23T01:37:29;16.80;98.40
16412;DHT22;8315;52.104;6.304;2022-07-23T01:39:58;16.80;98.40
16412;DHT22;8315;52.104;6.304;2022-07-23T01:42:25;16.80;98.40
16412;DHT22;8315;52.104;6.304;2022-07-23T01:44:52;16.80;98.40
16412;DHT22;8315;52.104;6.304;2022-07-23T01:47:20;16.70;98.40
16412;DHT22;8315;52.104;6.304;2022-07-23T01:49:50;16.60;98.40
16412;DHT22;8315;52.104;6.304;2022-07-23T01:52:36;16.50;98.40
16412;DHT22;8315;52.104;6.304;2022-07-23T01:55:04;16.50;98.40
16412;DHT22;8315;52.104;6.304;2022-07-23T01:57:33;16.50;98.40
16412;DHT22;8315;52.104;6.304;2022-07-23T02:00:00;16.40;98.40
16412;DHT22;8315;52.104;6.304;2022-07-23T02:02:27;16.40;98.40
16412;DHT22;8315;52.104;6.304;2022-07-23T02:04:54;16.30;98.40
16412;DHT22;8315;52.104;6.304;2022-07-23T02:07:25;16.30;98.40
16412;DHT22;8315;52.104;6.304;2022-07-23T02:09:51;16.30;98.40
16412;DHT22;8315;52.104;6.304;2022-07-23T02:12:20;16.20;98.40
16412;DHT22;8315;52.104;6.304;2022-07-23T02:14:46;16.10;98.40
16412;DHT22;8315;52.104;6.304;2022-07-23T02:17:13;16.10;98.40
16412;DHT22;8315;52.104;6.304;2022-07-23T02:19:40;16.10;98.40
16412;DHT22;8315;52.104;6.304;2022-07-23T02:22:07;16.00;98.40
16412;DHT22;8315;52.104;6.304;2022-07-23T02:24:33;16.00;98.40
16412;DHT22;8315;52.104;6.304;2022-07-23T02:27:00;15.90;98.40
16412;DHT22;8315;52.104;6.304;2022-07-23T02:29:28;15.80;98.40
16412;DHT22;8315;52.104;6.304;2022-07-23T02:31:55;15.80;98.40
16412;DHT22;8315;52.104;6.304;2022-07-23T02:34:22;15.80;98.40
16412;DHT22;8315;52.104;6.304;2022-07-23T02:36:49;15.80;98.40
16412;DHT22;8315;52.104;6.304;2022-07-23T02:39:16;15.80;98.40
16412;DHT22;8315;52.104;6.304;2022-07-23T02:41:43;15.80;98.40
16412;DHT22;8315;52.104;6.304;2022-07-23T02:44:10;15.70;98.40
16412;DHT22;8315;52.104;6.304;2022-07-23T02:46:39;15.70;98.40
16412;DHT22;8315;52.104;6.304;2022-07-23T02:49:05;15.70;98.40
16412;DHT22;8315;52.104;6.304;2022-07-23T02:51:32;15.70;98.40
16412;DHT22;8315;52.104;6.304;2022-07-23T02:54:03;15.60;98.40
16412;DHT22;8315;52.104;6.304;2022-07-23T02:56:30;15.50;98.40
16412;DHT22;8315;52.104;6.304;2022-07-23T02:58:57;15.50;98.40
16412;DHT22;8315;52.104;6.304;2022-07-23T03:01:23;15.40;98.40
16412;DHT22;8315;52.104;6.304;2022-07-23T03:03:52;15.40;98.40
16412;DHT22;8315;52.104;6.304;2022-07-23T03:06:21;15.30;98.40
16412;DHT22;8315;52.104;6.304;2022-07-23T03:08:49;15.30;98.40
16412;DHT22;8315;52.104;6.304;2022-07-23T03:11:16;15.30;98.40
16412;DHT22;8315;52.104;6.304;2022-07-23T03:13:42;15.20;98.40
16412;DHT22;8315;52.104;6.304;2022-07-23T03:16:09;15.20;98.40
16412;DHT22;8315;52.104;6.304;2022-07-23T03:18:36;15.20;98.40
16412;DHT22;8315;52.104;6.304;2022-07-23T03:21:04;15.20;98.40
16412;DHT22;8315;52.104;6.304;2022-07-23T03:23:31;15.20;98.40
16412;DHT22;8315;52.104;6.304;2022-07-23T03:25:59;15.20;98.40
16412;DHT22;8315;52.104;6.304;2022-07-23T03:28:25;15.20;98.40
16412;DHT22;8315;52.104;6.304;2022-07-23T03:30:52;15.10;98.40
16412;DHT22;8315;52.104;6.304;2022-07-23T03:33:20;15.10;98.40
16412;DHT22;8315;52.104;6.304;2022-07-23T03:35:48;15.10;98.40
16412;DHT22;8315;52.104;6.304;2022-07-23T03:38:21;15.10;98.40
16412;DHT22;8315;52.104;6.304;2022-07-23T03:40:49;15.10;98.40
16412;DHT22;8315;52.104;6.304;2022-07-23T03:43:16;15.00;98.40
16412;DHT22;8315;52.104;6.304;2022-07-23T03:45:44;15.00;98.40
16412;DHT22;8315;52.104;6.304;2022-07-23T03:48:11;14.90;98.40
16412;DHT22;8315;52.104;6.304;2022-07-23T03:50:38;15.00;98.40
16412;DHT22;8315;52.104;6.304;2022-07-23T03:53:04;14.90;98.40
16412;DHT22;8315;52.104;6.304;2022-07-23T03:55:35;14.90;98.40
16412;DHT22;8315;52.104;6.304;2022-07-23T03:58:02;14.80;98.40
16412;DHT22;8315;52.104;6.304;2022-07-23T04:00:29;14.80;98.40
16412;DHT22;8315;52.104;6.304;2022-07-23T04:02:56;14.70;98.40
16412;DHT22;8315;52.104;6.304;2022-07-23T04:05:22;14.80;98.40
16412;DHT22;8315;52.104;6.304;2022-07-23T04:07:55;14.80;98.40
16412;DHT22;8315;52.104;6.304;2022-07-23T04:10:22;14.80;98.40
16412;DHT22;8315;52.104;6.304;2022-07-23T04:12:50;14.80;98.40
16412;DHT22;8315;52.104;6.304;2022-07-23T04:15:17;14.80;98.40
16412;DHT22;8315;52.104;6.304;2022-07-23T04:17:43;14.70;98.40
16412;DHT22;8315;52.104;6.304;2022-07-23T04:20:12;14.80;98.40
16412;DHT22;8315;52.104;6.304;2022-07-23T04:22:46;14.80;98.40
16412;DHT22;8315;52.104;6.304;2022-07-23T04:25:13;14.80;98.40
16412;DHT22;8315;52.104;6.304;2022-07-23T04:27:42;14.80;98.40
16412;DHT22;8315;52.104;6.304;2022-07-23T04:30:11;14.70;98.40
16412;DHT22;8315;52.104;6.304;2022-07-23T04:32:39;14.70;98.40
16412;DHT22;8315;52.104;6.304;2022-07-23T04:35:13;14.80;98.40
16412;DHT22;8315;52.104;6.304;2022-07-23T04:37:40;14.80;98.40
16412;DHT22;8315;52.104;6.304;2022-07-23T04:40:08;14.80;98.40
16412;DHT22;8315;52.104;6.304;2022-07-23T04:42:36;14.80;98.40
16412;DHT22;8315;52.104;6.304;2022-07-23T04:45:03;14.80;98.40
16412;DHT22;8315;52.104;6.304;2022-07-23T04:47:32;14.80;98.40
16412;DHT22;8315;52.104;6.304;2022-07-23T04:49:58;14.80;98.40
16412;DHT22;8315;52.104;6.304;2022-07-23T04:52:25;14.80;98.40
16412;DHT22;8315;52.104;6.304;2022-07-23T04:54:52;14.90;98.40
16412;DHT22;8315;52.104;6.304;2022-07-23T04:57:19;14.90;98.40
16412;DHT22;8315;52.104;6.304;2022-07-23T04:59:46;15.00;98.40
16412;DHT22;8315;52.104;6.304;2022-07-23T05:02:14;15.20;98.40
16412;DHT22;8315;52.104;6.304;2022-07-23T05:04:43;15.30;98.40
16412;DHT22;8315;52.104;6.304;2022-07-23T05:07:10;15.40;98.40
16412;DHT22;8315;52.104;6.304;2022-07-23T05:09:37;15.50;98.40
16412;DHT22;8315;52.104;6.304;2022-07-23T05:12:04;15.60;98.40
16412;DHT22;8315;52.104;6.304;2022-07-23T05:14:33;15.60;98.40
16412;DHT22;8315;52.104;6.304;2022-07-23T05:17:00;15.60;98.40
16412;DHT22;8315;52.104;6.304;2022-07-23T05:19:27;15.70;98.40
16412;DHT22;8315;52.104;6.304;2022-07-23T05:21:55;15.70;98.40
16412;DHT22;8315;52.104;6.304;2022-07-23T05:24:22;15.80;98.40
16412;DHT22;8315;52.104;6.304;2022-07-23T05:26:50;15.90;98.40
16412;DHT22;8315;52.104;6.304;2022-07-23T05:29:18;16.00;98.40
16412;DHT22;8315;52.104;6.304;2022-07-23T05:31:45;16.00;98.40
16412;DHT22;8315;52.104;6.304;2022-07-23T05:34:12;16.00;98.40
16412;DHT22;8315;52.104;6.304;2022-07-23T05:36:40;16.00;98.40
16412;DHT22;8315;52.104;6.304;2022-07-23T05:39:08;16.00;98.40
16412;DHT22;8315;52.104;6.304;2022-07-23T05:41:36;16.00;98.40
16412;DHT22;8315;52.104;6.304;2022-07-23T05:44:03;16.10;98.40
16412;DHT22;8315;52.104;6.304;2022-07-23T05:46:31;16.00;98.40
16412;DHT22;8315;52.104;6.304;2022-07-23T05:49:04;16.00;98.40
16412;DHT22;8315;52.104;6.304;2022-07-23T05:51:54;16.00;98.40
16412;DHT22;8315;52.104;6.304;2022-07-23T05:54:33;16.10;98.40
16412;DHT22;8315;52.104;6.304;2022-07-23T05:57:00;16.10;98.40
16412;DHT22;8315;52.104;6.304;2022-07-23T05:59:27;16.10;98.40
16412;DHT22;8315;52.104;6.304;2022-07-23T06:01:55;16.20;98.40
16412;DHT22;8315;52.104;6.304;2022-07-23T06:04:22;16.20;98.40
16412;DHT22;8315;52.104;6.304;2022-07-23T06:07:05;16.30;98.40
16412;DHT22;8315;52.104;6.304;2022-07-23T06:09:34;16.40;98.40
16412;DHT22;8315;52.104;6.304;2022-07-23T06:12:01;16.50;98.40
16412;DHT22;8315;52.104;6.304;2022-07-23T06:14:29;16.70;98.40
16412;DHT22;8315;52.104;6.304;2022-07-23T06:16:58;16.80;98.40
16412;DHT22;8315;52.104;6.304;2022-07-23T06:19:25;16.90;98.40
16412;DHT22;8315;52.104;6.304;2022-07-23T06:21:52;17.00;98.40
16412;DHT22;8315;52.104;6.304;2022-07-23T06:24:19;17.00;98.40
16412;DHT22;8315;52.104;6.304;2022-07-23T06:26:49;17.00;98.40
16412;DHT22;8315;52.104;6.304;2022-07-23T06:29:16;17.10;98.40
16412;DHT22;8315;52.104;6.304;2022-07-23T06:31:45;17.20;98.40
16412;DHT22;8315;52.104;6.304;2022-07-23T06:34:13;17.20;98.40
16412;DHT22;8315;52.104;6.304;2022-07-23T06:36:40;17.30;98.40
16412;DHT22;8315;52.104;6.304;2022-07-23T06:39:07;17.40;98.40
16412;DHT22;8315;52.104;6.304;2022-07-23T06:41:34;17.40;98.40
16412;DHT22;8315;52.104;6.304;2022-07-23T06:44:02;17.50;98.40
16412;DHT22;8315;52.104;6.304;2022-07-23T06:46:33;17.60;98.40
16412;DHT22;8315;52.104;6.304;2022-07-23T06:49:00;17.70;98.40
16412;DHT22;8315;52.104;6.304;2022-07-23T06:51:28;17.70;98.40
16412;DHT22;8315;52.104;6.304;2022-07-23T06:53:55;17.80;98.40
16412;DHT22;8315;52.104;6.304;2022-07-23T06:56:22;17.90;98.40
16412;DHT22;8315;52.104;6.304;2022-07-23T06:58:49;18.00;98.40
16412;DHT22;8315;52.104;6.304;2022-07-23T07:01:17;18.00;98.40
16412;DHT22;8315;52.104;6.304;2022-07-23T07:03:44;18.10;98.40
16412;DHT22;8315;52.104;6.304;2022-07-23T07:06:11;18.20;98.40
16412;DHT22;8315;52.104;6.304;2022-07-23T07:08:38;18.20;98.40
16412;DHT22;8315;52.104;6.304;2022-07-23T07:11:05;18.40;98.40
16412;DHT22;8315;52.104;6.304;2022-07-23T07:13:33;18.40;98.40
16412;DHT22;8315;52.104;6.304;2022-07-23T07:16:00;18.40;98.40
16412;DHT22;8315;52.104;6.304;2022-07-23T07:18:28;18.60;98.40
16412;DHT22;8315;52.104;6.304;2022-07-23T07:20:56;18.60;98.40
16412;DHT22;8315;52.104;6.304;2022-07-23T07:23:23;18.60;98.40
16412;DHT22;8315;52.104;6.304;2022-07-23T07:25:49;18.70;98.40
16412;DHT22;8315;52.104;6.304;2022-07-23T07:28:16;18.80;98.40
16412;DHT22;8315;52.104;6.304;2022-07-23T07:30:43;18.90;98.40
16412;DHT22;8315;52.104;6.304;2022-07-23T07:33:10;19.00;98.40
16412;DHT22;8315;52.104;6.304;2022-07-23T07:35:38;19.10;98.40
16412;DHT22;8315;52.104;6.304;2022-07-23T07:38:05;19.20;98.40
16412;DHT22;8315;52.104;6.304;2022-07-23T07:40:31;19.20;98.40
16412;DHT22;8315;52.104;6.304;2022-07-23T07:42:58;19.10;98.40
16412;DHT22;8315;52.104;6.304;2022-07-23T07:45:27;19.30;98.40
16412;DHT22;8315;52.104;6.304;2022-07-23T07:47:53;19.20;98.40
16412;DHT22;8315;52.104;6.304;2022-07-23T07:50:20;19.40;98.40
16412;DHT22;8315;52.104;6.304;2022-07-23T07:52:49;19.50;98.40
16412;DHT22;8315;52.104;6.304;2022-07-23T07:55:16;19.60;98.40
16412;DHT22;8315;52.104;6.304;2022-07-23T07:57:43;19.70;98.10
16412;DHT22;8315;52.104;6.304;2022-07-23T08:00:10;19.80;98.40
16412;DHT22;8315;52.104;6.304;2022-07-23T08:02:41;19.90;98.10
16412;DHT22;8315;52.104;6.304;2022-07-23T08:05:09;19.90;98.00
16412;DHT22;8315;52.104;6.304;2022-07-23T08:07:36;19.90;97.80
16412;DHT22;8315;52.104;6.304;2022-07-23T08:10:07;19.90;97.40
16412;DHT22;8315;52.104;6.304;2022-07-23T08:12:39;19.80;97.50
16412;DHT22;8315;52.104;6.304;2022-07-23T08:15:07;19.80;98.40
16412;DHT22;8315;52.104;6.304;2022-07-23T08:17:34;19.60;97.70
16412;DHT22;8315;52.104;6.304;2022-07-23T08:20:01;19.60;98.20
16412;DHT22;8315;52.104;6.304;2022-07-23T08:22:41;19.60;98.00
16412;DHT22;8315;52.104;6.304;2022-07-23T08:25:12;19.50;97.90
16412;DHT22;8315;52.104;6.304;2022-07-23T08:27:39;19.70;97.50
16412;DHT22;8315;52.104;6.304;2022-07-23T08:30:07;19.80;97.30
16412;DHT22;8315;52.104;6.304;2022-07-23T08:32:47;20.00;96.70
16412;DHT22;8315;52.104;6.304;2022-07-23T08:35:15;20.20;96.70
16412;DHT22;8315;52.104;6.304;2022-07-23T08:37:42;20.40;96.30
16412;DHT22;8315;52.104;6.304;2022-07-23T08:40:09;20.50;95.90
16412;DHT22;8315;52.104;6.304;2022-07-23T08:42:38;20.50;94.90
16412;DHT22;8315;52.104;6.304;2022-07-23T08:45:06;20.60;96.00
16412;DHT22;8315;52.104;6.304;2022-07-23T08:47:34;20.80;95.40
16412;DHT22;8315;52.104;6.304;2022-07-23T08:50:01;20.90;95.30
16412;DHT22;8315;52.104;6.304;2022-07-23T08:52:28;20.80;95.20
16412;DHT22;8315;52.104;6.304;2022-07-23T08:54:57;20.80;96.00
16412;DHT22;8315;52.104;6.304;2022-07-23T08:57:23;20.90;95.90
16412;DHT22;8315;52.104;6.304;2022-07-23T08:59:52;21.00;95.00
16412;DHT22;8315;52.104;6.304;2022-07-23T09:02:19;21.00;94.00
16412;DHT22;8315;52.104;6.304;2022-07-23T09:04:45;20.90;94.20
16412;DHT22;8315;52.104;6.304;2022-07-23T09:07:12;20.90;92.40
16412;DHT22;8315;52.104;6.304;2022-07-23T09:09:39;20.80;93.20
16412;DHT22;8315;52.104;6.304;2022-07-23T09:12:06;20.90;93.60
16412;DHT22;8315;52.104;6.304;2022-07-23T09:14:38;21.10;93.10
16412;DHT22;8315;52.104;6.304;2022-07-23T09:17:14;21.20;92.40
16412;DHT22;8315;52.104;6.304;2022-07-23T09:19:42;21.40;92.00
16412;DHT22;8315;52.104;6.304;2022-07-23T09:22:19;21.50;91.50
16412;DHT22;8315;52.104;6.304;2022-07-23T09:25:03;21.50;91.90
16412;DHT22;8315;52.104;6.304;2022-07-23T09:27:52;21.70;91.60
16412;DHT22;8315;52.104;6.304;2022-07-23T09:30:20;21.80;91.60
16412;DHT22;8315;52.104;6.304;2022-07-23T09:33:05;21.90;91.20
16412;DHT22;8315;52.104;6.304;2022-07-23T09:38:19;21.20;91.60
16412;DHT22;8315;52.104;6.304;2022-07-23T09:41:04;21.40;90.90
16412;DHT22;8315;52.104;6.304;2022-07-23T09:43:32;21.60;90.60
16412;DHT22;8315;52.104;6.304;2022-07-23T09:48:45;21.80;90.00
16412;DHT22;8315;52.104;6.304;2022-07-23T09:51:12;21.90;88.90
16412;DHT22;8315;52.104;6.304;2022-07-23T09:53:40;21.80;89.30
16412;DHT22;8315;52.104;6.304;2022-07-23T09:56:07;21.90;90.40
16412;DHT22;8315;52.104;6.304;2022-07-23T09:58:35;21.70;89.40
16412;DHT22;8315;52.104;6.304;2022-07-23T10:01:08;21.60;90.60
16412;DHT22;8315;52.104;6.304;2022-07-23T10:03:35;21.70;91.30
16412;DHT22;8315;52.104;6.304;2022-07-23T10:06:37;22.00;91.00
16412;DHT22;8315;52.104;6.304;2022-07-23T10:09:40;22.20;89.00
16412;DHT22;8315;52.104;6.304;2022-07-23T10:12:33;22.30;88.50
16412;DHT22;8315;52.104;6.304;2022-07-23T10:15:11;22.30;88.40
16412;DHT22;8315;52.104;6.304;2022-07-23T10:17:38;22.30;88.20
16412;DHT22;8315;52.104;6.304;2022-07-23T10:20:05;22.30;89.10
16412;DHT22;8315;52.104;6.304;2022-07-23T10:22:35;22.20;88.00
16412;DHT22;8315;52.104;6.304;2022-07-23T10:25:10;22.30;88.10
16412;DHT22;8315;52.104;6.304;2022-07-23T10:30:33;22.50;87.90
16412;DHT22;8315;52.104;6.304;2022-07-23T10:33:19;22.70;86.90
16412;DHT22;8315;52.104;6.304;2022-07-23T10:35:53;22.80;87.40
16412;DHT22;8315;52.104;6.304;2022-07-23T10:38:25;23.00;87.70
16412;DHT22;8315;52.104;6.304;2022-07-23T10:40:56;23.00;86.00
16412;DHT22;8315;52.104;6.304;2022-07-23T10:43:24;23.20;85.10
16412;DHT22;8315;52.104;6.304;2022-07-23T10:45:51;23.20;84.90
16412;DHT22;8315;52.104;6.304;2022-07-23T10:48:19;23.20;85.20
16412;DHT22;8315;52.104;6.304;2022-07-23T10:53:55;23.30;85.30
16412;DHT22;8315;52.104;6.304;2022-07-23T10:59:16;23.20;85.10
16412;DHT22;8315;52.104;6.304;2022-07-23T11:01:43;23.20;86.50
16412;DHT22;8315;52.104;6.304;2022-07-23T11:04:11;23.40;86.60
16412;DHT22;8315;52.104;6.304;2022-07-23T11:09:39;23.60;84.20
16412;DHT22;8315;52.104;6.304;2022-07-23T11:15:01;23.50;84.40
16412;DHT22;8315;52.104;6.304;2022-07-23T11:17:30;23.60;83.70
16412;DHT22;8315;52.104;6.304;2022-07-23T11:20:13;23.50;85.00
16412;DHT22;8315;52.104;6.304;2022-07-23T11:22:48;23.50;84.70
16412;DHT22;8315;52.104;6.304;2022-07-23T11:25:30;23.40;85.30
16412;DHT22;8315;52.104;6.304;2022-07-23T11:28:08;23.50;85.40
16412;DHT22;8315;52.104;6.304;2022-07-23T11:30:37;23.70;84.70
16412;DHT22;8315;52.104;6.304;2022-07-23T11:33:19;23.70;83.90
16412;DHT22;8315;52.104;6.304;2022-07-23T11:35:47;23.70;84.40
16412;DHT22;8315;52.104;6.304;2022-07-23T11:38:17;23.80;83.50
16412;DHT22;8315;52.104;6.304;2022-07-23T11:40:46;23.80;84.10
16412;DHT22;8315;52.104;6.304;2022-07-23T11:43:14;23.90;84.30
16412;DHT22;8315;52.104;6.304;2022-07-23T11:45:43;24.00;84.10
16412;DHT22;8315;52.104;6.304;2022-07-23T11:48:15;23.90;84.70
16412;DHT22;8315;52.104;6.304;2022-07-23T11:50:43;23.90;84.40
16412;DHT22;8315;52.104;6.304;2022-07-23T11:53:10;23.70;85.50
16412;DHT22;8315;52.104;6.304;2022-07-23T11:55:37;23.80;85.50
16412;DHT22;8315;52.104;6.304;2022-07-23T11:58:05;24.00;84.60
16412;DHT22;8315;52.104;6.304;2022-07-23T12:00:32;24.10;83.60
16412;DHT22;8315;52.104;6.304;2022-07-23T12:03:00;24.10;84.30
16412;DHT22;8315;52.104;6.304;2022-07-23T12:05:29;24.30;83.70
16412;DHT22;8315;52.104;6.304;2022-07-23T12:07:57;24.30;81.60
16412;DHT22;8315;52.104;6.304;2022-07-23T12:10:26;24.10;83.90
16412;DHT22;8315;52.104;6.304;2022-07-23T12:12:55;24.00;84.50
16412;DHT22;8315;52.104;6.304;2022-07-23T12:15:25;24.00;85.30
16412;DHT22;8315;52.104;6.304;2022-07-23T12:17:54;24.20;84.60
16412;DHT22;8315;52.104;6.304;2022-07-23T12:20:22;24.20;83.30
16412;DHT22;8315;52.104;6.304;2022-07-23T12:22:50;24.40;82.40
16412;DHT22;8315;52.104;6.304;2022-07-23T12:25:19;24.50;82.90
16412;DHT22;8315;52.104;6.304;2022-07-23T12:27:59;24.50;82.90
16412;DHT22;8315;52.104;6.304;2022-07-23T12:30:30;24.50;82.70
16412;DHT22;8315;52.104;6.304;2022-07-23T12:32:58;24.30;82.50
16412;DHT22;8315;52.104;6.304;2022-07-23T12:35:30;24.10;84.40
16412;DHT22;8315;52.104;6.304;2022-07-23T12:37:59;24.00;83.60
16412;DHT22;8315;52.104;6.304;2022-07-23T12:40:27;24.10;83.60
16412;DHT22;8315;52.104;6.304;2022-07-23T12:42:56;24.40;82.70
16412;DHT22;8315;52.104;6.304;2022-07-23T12:45:24;24.70;83.30
16412;DHT22;8315;52.104;6.304;2022-07-23T12:47:58;24.80;82.60
16412;DHT22;8315;52.104;6.304;2022-07-23T12:50:30;24.90;83.80
16412;DHT22;8315;52.104;6.304;2022-07-23T12:53:04;25.00;81.60
16412;DHT22;8315;52.104;6.304;2022-07-23T12:55:33;24.90;80.90
16412;DHT22;8315;52.104;6.304;2022-07-23T12:58:04;24.50;82.50
16412;DHT22;8315;52.104;6.304;2022-07-23T13:03:33;24.70;83.90
16412;DHT22;8315;52.104;6.304;2022-07-23T13:06:03;25.10;80.80
16412;DHT22;8315;52.104;6.304;2022-07-23T13:08:31;25.10;80.40
16412;DHT22;8315;52.104;6.304;2022-07-23T13:10:58;25.20;80.40
16412;DHT22;8315;52.104;6.304;2022-07-23T13:13:26;25.40;80.10
16412;DHT22;8315;52.104;6.304;2022-07-23T13:15:54;25.50;79.40
16412;DHT22;8315;52.104;6.304;2022-07-23T13:18:21;25.60;78.90
16412;DHT22;8315;52.104;6.304;2022-07-23T13:20:49;25.70;79.10
16412;DHT22;8315;52.104;6.304;2022-07-23T13:23:16;25.80;78.00
16412;DHT22;8315;52.104;6.304;2022-07-23T13:25:44;25.80;79.50
16412;DHT22;8315;52.104;6.304;2022-07-23T13:28:11;25.80;79.10
16412;DHT22;8315;52.104;6.304;2022-07-23T13:30:38;25.70;79.50
16412;DHT22;8315;52.104;6.304;2022-07-23T13:33:05;25.70;79.40
16412;DHT22;8315;52.104;6.304;2022-07-23T13:35:33;25.70;80.10
16412;DHT22;8315;52.104;6.304;2022-07-23T13:38:01;25.70;80.80
16412;DHT22;8315;52.104;6.304;2022-07-23T13:40:28;25.70;80.60
16412;DHT22;8315;52.104;6.304;2022-07-23T13:42:55;25.80;79.40
16412;DHT22;8315;52.104;6.304;2022-07-23T13:45:22;25.60;79.30
16412;DHT22;8315;52.104;6.304;2022-07-23T13:47:49;25.60;79.30
16412;DHT22;8315;52.104;6.304;2022-07-23T13:50:16;25.60;78.70
16412;DHT22;8315;52.104;6.304;2022-07-23T13:52:43;25.60;78.50
16412;DHT22;8315;52.104;6.304;2022-07-23T13:55:11;25.60;78.90
16412;DHT22;8315;52.104;6.304;2022-07-23T13:57:39;25.90;80.40
16412;DHT22;8315;52.104;6.304;2022-07-23T14:00:06;25.70;78.50
16412;DHT22;8315;52.104;6.304;2022-07-23T14:02:36;25.60;80.40
16412;DHT22;8315;52.104;6.304;2022-07-23T14:05:04;25.60;79.10
16412;DHT22;8315;52.104;6.304;2022-07-23T14:07:31;25.90;80.30
16412;DHT22;8315;52.104;6.304;2022-07-23T14:09:59;26.10;80.20
16412;DHT22;8315;52.104;6.304;2022-07-23T14:12:27;26.00;79.30
16412;DHT22;8315;52.104;6.304;2022-07-23T14:14:54;26.30;79.10
16412;DHT22;8315;52.104;6.304;2022-07-23T14:17:20;26.40;78.50
16412;DHT22;8315;52.104;6.304;2022-07-23T14:19:47;26.30;78.10
16412;DHT22;8315;52.104;6.304;2022-07-23T14:22:14;26.30;78.60
16412;DHT22;8315;52.104;6.304;2022-07-23T14:24:41;26.50;79.10
16412;DHT22;8315;52.104;6.304;2022-07-23T14:27:11;26.60;78.10
16412;DHT22;8315;52.104;6.304;2022-07-23T14:29:39;26.70;79.10
16412;DHT22;8315;52.104;6.304;2022-07-23T14:32:06;26.70;77.80
16412;DHT22;8315;52.104;6.304;2022-07-23T14:34:33;26.40;77.60
16412;DHT22;8315;52.104;6.304;2022-07-23T14:36:59;26.30;76.90
16412;DHT22;8315;52.104;6.304;2022-07-23T14:39:26;26.10;77.90
16412;DHT22;8315;52.104;6.304;2022-07-23T14:41:53;26.00;79.00
16412;DHT22;8315;52.104;6.304;2022-07-23T14:44:20;26.10;78.30
16412;DHT22;8315;52.104;6.304;2022-07-23T14:46:48;26.10;77.90
16412;DHT22;8315;52.104;6.304;2022-07-23T14:49:15;26.20;79.00
16412;DHT22;8315;52.104;6.304;2022-07-23T14:51:42;26.30;79.20
16412;DHT22;8315;52.104;6.304;2022-07-23T14:54:10;26.50;78.20
16412;DHT22;8315;52.104;6.304;2022-07-23T14:56:37;26.60;77.20
16412;DHT22;8315;52.104;6.304;2022-07-23T14:59:04;26.80;78.30
16412;DHT22;8315;52.104;6.304;2022-07-23T15:01:31;27.10;76.40
16412;DHT22;8315;52.104;6.304;2022-07-23T15:03:59;27.10;74.70
16412;DHT22;8315;52.104;6.304;2022-07-23T15:06:26;27.30;74.60
16412;DHT22;8315;52.104;6.304;2022-07-23T15:08:53;27.40;75.10
16412;DHT22;8315;52.104;6.304;2022-07-23T15:11:19;27.40;74.40
16412;DHT22;8315;52.104;6.304;2022-07-23T15:13:46;27.30;74.80
16412;DHT22;8315;52.104;6.304;2022-07-23T15:16:13;27.20;75.20
16412;DHT22;8315;52.104;6.304;2022-07-23T15:18:40;27.30;75.50
16412;DHT22;8315;52.104;6.304;2022-07-23T15:21:08;27.30;74.20
16412;DHT22;8315;52.104;6.304;2022-07-23T15:23:35;27.20;73.70
16412;DHT22;8315;52.104;6.304;2022-07-23T15:26:05;27.10;74.10
16412;DHT22;8315;52.104;6.304;2022-07-23T15:28:32;27.10;75.50
16412;DHT22;8315;52.104;6.304;2022-07-23T15:30:59;27.10;76.20
16412;DHT22;8315;52.104;6.304;2022-07-23T15:33:26;27.20;76.30
16412;DHT22;8315;52.104;6.304;2022-07-23T15:35:53;27.30;76.30
16412;DHT22;8315;52.104;6.304;2022-07-23T15:38:23;27.50;75.00
16412;DHT22;8315;52.104;6.304;2022-07-23T15:40:50;27.60;73.90
16412;DHT22;8315;52.104;6.304;2022-07-23T15:43:17;27.80;74.50
16412;DHT22;8315;52.104;6.304;2022-07-23T15:45:44;27.80;73.70
16412;DHT22;8315;52.104;6.304;2022-07-23T15:48:11;27.70;73.50
16412;DHT22;8315;52.104;6.304;2022-07-23T15:50:39;27.60;73.70
16412;DHT22;8315;52.104;6.304;2022-07-23T15:53:05;27.40;73.90
16412;DHT22;8315;52.104;6.304;2022-07-23T15:55:34;27.40;74.40
16412;DHT22;8315;52.104;6.304;2022-07-23T15:58:01;27.50;74.40
16412;DHT22;8315;52.104;6.304;2022-07-23T16:00:27;27.80;74.30
16412;DHT22;8315;52.104;6.304;2022-07-23T16:02:54;27.80;74.20
16412;DHT22;8315;52.104;6.304;2022-07-23T16:05:21;27.90;73.20
16412;DHT22;8315;52.104;6.304;2022-07-23T16:07:48;27.90;74.20
16412;DHT22;8315;52.104;6.304;2022-07-23T16:10:15;28.00;74.10
16412;DHT22;8315;52.104;6.304;2022-07-23T16:12:43;28.00;73.70
16412;DHT22;8315;52.104;6.304;2022-07-23T16:15:10;27.80;74.10
16412;DHT22;8315;52.104;6.304;2022-07-23T16:17:37;27.70;75.00